createdAt,value
2018-06-20T00:00:10.731Z,0.00
2018-06-20T00:01:10.720Z,0.00
2018-06-20T00:02:10.708Z,0.00
2018-06-20T00:03:10.697Z,0.00
2018-06-20T00:04:10.682Z,0.00
2018-06-20T00:05:10.680Z,0.00
2018-06-20T00:06:10.691Z,0.00
2018-06-20T00:07:10.659Z,0.00
2018-06-20T00:08:10.650Z,0.00
2018-06-20T00:09:10.630Z,0.00
2018-06-20T00:10:10.619Z,0.00
2018-06-20T00:11:10.606Z,0.00
2018-06-20T00:12:10.604Z,0.00
2018-06-20T00:13:10.582Z,0.00
2018-06-20T00:14:10.630Z,0.00
2018-06-20T00:15:10.569Z,0.00
2018-06-20T00:16:10.647Z,0.00
2018-06-20T00:17:10.535Z,0.00
2018-06-20T00:18:10.551Z,0.00
2018-06-20T00:19:10.512Z,0.00
2018-06-20T00:20:10.511Z,0.00
2018-06-20T00:21:10.502Z,0.00
2018-06-20T00:22:10.579Z,0.00
2018-06-20T00:23:10.472Z,0.00
2018-06-20T00:24:10.460Z,0.00
2018-06-20T00:25:10.446Z,0.00
2018-06-20T00:26:10.444Z,0.00
2018-06-20T00:27:10.430Z,0.00
2018-06-20T00:28:10.414Z,0.00
2018-06-20T00:29:10.406Z,0.00
2018-06-20T00:30:10.403Z,0.00
2018-06-20T00:31:10.381Z,0.00
2018-06-20T00:32:10.368Z,0.00
2018-06-20T00:33:10.358Z,0.00
2018-06-20T00:34:10.397Z,0.00
2018-06-20T00:35:10.333Z,0.00
2018-06-20T00:36:10.332Z,0.00
2018-06-20T00:37:10.309Z,0.00
2018-06-20T00:38:10.302Z,0.00
2018-06-20T00:39:10.292Z,0.00
2018-06-20T00:40:10.280Z,0.00
2018-06-20T00:41:10.267Z,0.00
2018-06-20T00:42:10.257Z,0.00
2018-06-20T00:43:10.241Z,0.00
2018-06-20T00:44:10.232Z,0.00
2018-06-20T00:45:10.222Z,0.00
2018-06-20T00:46:10.215Z,0.00
2018-06-20T00:47:10.197Z,0.00
2018-06-20T00:48:10.188Z,0.00
2018-06-20T00:49:10.191Z,0.00
2018-06-20T00:50:10.169Z,0.00
2018-06-20T00:51:10.152Z,0.00
2018-06-20T00:52:10.143Z,0.00
2018-06-20T00:53:10.133Z,0.00
2018-06-20T00:54:10.120Z,0.00
2018-06-20T00:55:10.118Z,0.00
2018-06-20T00:56:10.100Z,0.00
2018-06-20T00:57:10.082Z,0.00
2018-06-20T00:58:10.072Z,0.00
2018-06-20T00:59:10.061Z,0.00
2018-06-20T01:00:10.050Z,0.00
2018-06-20T01:01:10.039Z,0.00
2018-06-20T01:02:10.029Z,0.00
2018-06-20T01:03:10.021Z,0.00
2018-06-20T01:04:10.015Z,0.00
2018-06-20T01:05:09.990Z,0.00
2018-06-20T01:06:09.981Z,0.00
2018-06-20T01:07:09.971Z,0.00
2018-06-20T01:08:09.960Z,0.00
2018-06-20T01:09:09.944Z,0.00
2018-06-20T01:10:09.941Z,0.00
2018-06-20T01:11:09.924Z,0.00
2018-06-20T01:12:09.923Z,0.00
2018-06-20T01:13:09.915Z,0.00
2018-06-20T01:14:09.890Z,0.00
2018-06-20T01:15:09.882Z,0.00
2018-06-20T01:16:09.873Z,0.00
2018-06-20T01:17:09.859Z,0.00
2018-06-20T01:18:09.847Z,0.00
2018-06-20T01:19:09.833Z,0.00
2018-06-20T01:20:09.822Z,0.00
2018-06-20T01:21:09.809Z,0.00
2018-06-20T01:22:09.802Z,0.00
2018-06-20T01:23:09.789Z,0.00
2018-06-20T01:24:09.784Z,0.00
2018-06-20T01:25:09.772Z,0.00
2018-06-20T01:26:09.751Z,0.00
2018-06-20T01:27:09.757Z,0.00
2018-06-20T01:28:09.734Z,0.00
2018-06-20T01:29:09.721Z,0.00
2018-06-20T01:30:09.708Z,0.00
2018-06-20T01:31:09.699Z,0.00
2018-06-20T01:32:09.684Z,0.00
2018-06-20T01:33:09.670Z,0.00
2018-06-20T01:34:09.660Z,0.00
2018-06-20T01:35:09.650Z,0.00
2018-06-20T01:36:09.639Z,0.00
2018-06-20T01:37:09.624Z,0.00
2018-06-20T01:38:09.613Z,0.00
2018-06-20T01:39:09.601Z,0.00
2018-06-20T01:40:09.588Z,0.00
2018-06-20T01:41:09.585Z,0.00
2018-06-20T01:42:09.570Z,0.00
2018-06-20T01:43:09.565Z,0.00
2018-06-20T01:44:09.543Z,0.00
2018-06-20T01:45:09.531Z,0.00
2018-06-20T01:46:09.521Z,0.00
2018-06-20T01:47:09.511Z,0.00
2018-06-20T01:48:09.500Z,0.00
2018-06-20T01:49:09.491Z,0.00
2018-06-20T01:50:09.481Z,0.00
2018-06-20T01:51:09.462Z,0.00
2018-06-20T01:52:09.459Z,0.00
2018-06-20T01:53:09.444Z,0.00
2018-06-20T01:54:09.431Z,0.00
2018-06-20T01:55:09.420Z,0.00
2018-06-20T01:56:09.406Z,0.00
2018-06-20T01:57:09.391Z,0.00
2018-06-20T01:58:09.382Z,0.00
2018-06-20T01:59:09.372Z,0.00
2018-06-20T02:00:09.361Z,0.00
2018-06-20T02:01:09.354Z,0.00
2018-06-20T02:02:09.340Z,0.00
2018-06-20T02:03:09.323Z,0.00
2018-06-20T02:04:09.312Z,0.00
2018-06-20T02:05:09.302Z,0.00
2018-06-20T02:06:09.286Z,0.00
2018-06-20T02:07:09.280Z,0.00
2018-06-20T02:08:09.271Z,0.00
2018-06-20T02:09:09.253Z,0.00
2018-06-20T02:10:09.249Z,0.00
2018-06-20T02:11:09.233Z,0.00
2018-06-20T02:12:09.219Z,0.00
2018-06-20T02:13:09.207Z,0.00
2018-06-20T02:14:09.255Z,0.00
2018-06-20T02:15:09.181Z,0.00
2018-06-20T02:16:09.175Z,0.00
2018-06-20T02:17:09.162Z,0.00
2018-06-20T02:18:09.150Z,0.00
2018-06-20T02:19:09.137Z,0.00
2018-06-20T02:20:09.191Z,0.00
2018-06-20T02:21:09.118Z,0.00
2018-06-20T02:22:09.102Z,0.00
2018-06-20T02:23:09.093Z,0.00
2018-06-20T02:24:09.178Z,0.00
2018-06-20T02:25:09.070Z,0.00
2018-06-20T02:26:09.163Z,0.00
2018-06-20T02:27:09.041Z,0.00
2018-06-20T02:28:09.082Z,0.00
2018-06-20T02:29:09.018Z,0.00
2018-06-20T02:30:09.114Z,0.00
2018-06-20T02:31:09.000Z,0.00
2018-06-20T02:32:09.036Z,0.00
2018-06-20T02:33:08.973Z,0.00
2018-06-20T02:34:08.958Z,0.00
2018-06-20T02:35:08.953Z,0.00
2018-06-20T02:36:08.939Z,0.00
2018-06-20T02:37:08.928Z,0.00
2018-06-20T02:38:08.911Z,4.00
2018-06-20T02:39:08.899Z,4.00
2018-06-20T02:40:08.891Z,0.00
2018-06-20T02:41:08.874Z,0.00
2018-06-20T02:42:08.871Z,0.00
2018-06-20T02:43:08.852Z,4.00
2018-06-20T02:44:08.843Z,4.00
2018-06-20T02:45:08.826Z,0.00
2018-06-20T02:46:08.828Z,4.00
2018-06-20T02:47:08.816Z,4.00
2018-06-20T02:48:08.799Z,4.00
2018-06-20T02:49:08.788Z,4.00
2018-06-20T02:50:08.772Z,4.00
2018-06-20T02:51:08.762Z,8.00
2018-06-20T02:52:08.752Z,4.00
2018-06-20T02:53:08.744Z,4.00
2018-06-20T02:54:08.730Z,8.00
2018-06-20T02:55:08.710Z,8.00
2018-06-20T02:56:08.701Z,8.00
2018-06-20T02:57:08.691Z,8.00
2018-06-20T02:58:08.681Z,8.00
2018-06-20T02:59:08.668Z,8.00
2018-06-20T03:00:08.656Z,12.00
2018-06-20T03:01:08.640Z,8.00
2018-06-20T03:02:08.640Z,12.00
2018-06-20T03:03:08.621Z,12.00
2018-06-20T03:04:08.611Z,16.00
2018-06-20T03:05:08.649Z,12.00
2018-06-20T03:06:08.594Z,16.00
2018-06-20T03:07:08.574Z,16.00
2018-06-20T03:08:08.568Z,16.00
2018-06-20T03:09:08.557Z,20.00
2018-06-20T03:10:08.541Z,20.00
2018-06-20T03:11:08.534Z,16.00
2018-06-20T03:12:08.511Z,20.00
2018-06-20T03:13:08.502Z,20.00
2018-06-20T03:14:08.489Z,20.00
2018-06-20T03:15:08.481Z,24.00
2018-06-20T03:16:08.465Z,24.00
2018-06-20T03:17:08.453Z,28.00
2018-06-20T03:18:08.451Z,24.00
2018-06-20T03:19:08.434Z,28.00
2018-06-20T03:20:08.422Z,32.00
2018-06-20T03:21:08.413Z,32.00
2018-06-20T03:22:08.404Z,36.00
2018-06-20T03:23:08.381Z,40.00
2018-06-20T03:24:08.371Z,40.00
2018-06-20T03:25:08.360Z,40.00
2018-06-20T03:26:08.346Z,40.00
2018-06-20T03:27:08.342Z,44.00
2018-06-20T03:28:08.324Z,48.00
2018-06-20T03:29:08.315Z,48.00
2018-06-20T03:30:08.298Z,60.00
2018-06-20T03:31:08.300Z,64.00
2018-06-20T03:32:08.285Z,68.00
2018-06-20T03:33:08.267Z,72.00
2018-06-20T03:34:08.262Z,72.00
2018-06-20T03:35:08.242Z,76.00
2018-06-20T03:36:08.231Z,80.00
2018-06-20T03:37:08.221Z,80.00
2018-06-20T03:38:08.211Z,80.00
2018-06-20T03:39:08.196Z,88.00
2018-06-20T03:40:08.182Z,88.00
2018-06-20T03:41:08.186Z,88.00
2018-06-20T03:42:08.161Z,92.00
2018-06-20T03:43:08.153Z,96.00
2018-06-20T03:44:08.136Z,100.00
2018-06-20T03:45:08.172Z,100.00
2018-06-20T03:46:08.113Z,104.00
2018-06-20T03:47:08.104Z,104.00
2018-06-20T03:48:08.088Z,108.00
2018-06-20T03:49:08.082Z,116.00
2018-06-20T03:50:08.073Z,116.00
2018-06-20T03:51:08.054Z,116.00
2018-06-20T03:52:08.042Z,120.00
2018-06-20T03:53:08.033Z,124.00
2018-06-20T03:54:08.019Z,128.00
2018-06-20T03:55:08.009Z,132.00
2018-06-20T03:56:08.002Z,136.00
2018-06-20T03:57:07.984Z,136.00
2018-06-20T03:58:07.973Z,144.00
2018-06-20T03:59:07.962Z,148.00
2018-06-20T04:00:07.953Z,152.00
2018-06-20T04:01:07.940Z,164.00
2018-06-20T04:02:07.924Z,176.00
2018-06-20T04:03:07.912Z,172.00
2018-06-20T04:04:07.902Z,172.00
2018-06-20T04:05:07.903Z,176.00
2018-06-20T04:06:07.877Z,176.00
2018-06-20T04:07:07.869Z,176.00
2018-06-20T04:08:07.849Z,180.00
2018-06-20T04:09:07.847Z,184.00
2018-06-20T04:10:07.832Z,184.00
2018-06-20T04:11:07.824Z,188.00
2018-06-20T04:12:07.805Z,196.00
2018-06-20T04:13:07.795Z,208.00
2018-06-20T04:14:07.786Z,220.00
2018-06-20T04:15:07.774Z,228.00
2018-06-20T04:16:07.760Z,236.00
2018-06-20T04:17:07.756Z,244.00
2018-06-20T04:18:07.745Z,256.00
2018-06-20T04:19:07.723Z,268.00
2018-06-20T04:20:07.711Z,276.00
2018-06-20T04:21:07.707Z,284.00
2018-06-20T04:22:07.706Z,292.00
2018-06-20T04:23:07.684Z,300.00
2018-06-20T04:24:07.717Z,304.00
2018-06-20T04:25:07.651Z,304.00
2018-06-20T04:26:07.653Z,300.00
2018-06-20T04:27:07.628Z,300.00
2018-06-20T04:28:07.658Z,308.00
2018-06-20T04:29:07.612Z,328.00
2018-06-20T04:30:07.633Z,356.00
2018-06-20T04:31:07.582Z,400.00
2018-06-20T04:32:07.622Z,444.00
2018-06-20T04:33:07.562Z,508.00
2018-06-20T04:34:07.548Z,572.00
2018-06-20T04:35:07.536Z,636.00
2018-06-20T04:36:07.528Z,688.00
2018-06-20T04:37:07.518Z,736.00
2018-06-20T04:38:07.503Z,792.00
2018-06-20T04:39:07.495Z,840.00
2018-06-20T04:40:07.477Z,900.00
2018-06-20T04:41:07.470Z,952.00
2018-06-20T04:42:07.454Z,1012.00
2018-06-20T04:43:07.442Z,1084.00
2018-06-20T04:44:07.431Z,1136.00
2018-06-20T04:45:07.424Z,1208.00
2018-06-20T04:46:07.412Z,1288.00
2018-06-20T04:47:07.402Z,1332.00
2018-06-20T04:48:07.390Z,1364.00
2018-06-20T04:49:07.377Z,1408.00
2018-06-20T04:50:07.364Z,1456.00
2018-06-20T04:51:07.353Z,1488.00
2018-06-20T04:52:07.342Z,1576.00
2018-06-20T04:53:07.332Z,1628.00
2018-06-20T04:54:07.320Z,1720.00
2018-06-20T04:55:07.304Z,1808.00
2018-06-20T04:56:07.292Z,1916.00
2018-06-20T04:57:07.281Z,1992.00
2018-06-20T04:58:07.269Z,2100.00
2018-06-20T04:59:07.258Z,2184.00
2018-06-20T05:00:07.249Z,2264.00
2018-06-20T05:01:07.236Z,2336.00
2018-06-20T05:02:07.224Z,2364.00
2018-06-20T05:03:07.220Z,2400.00
2018-06-20T05:04:07.215Z,2452.00
2018-06-20T05:05:07.198Z,2504.00
2018-06-20T05:06:07.183Z,2552.00
2018-06-20T05:07:07.177Z,2652.00
2018-06-20T05:08:07.158Z,2772.00
2018-06-20T05:09:07.145Z,2844.00
2018-06-20T05:10:07.137Z,2936.00
2018-06-20T05:11:07.122Z,2968.00
2018-06-20T05:12:07.114Z,3032.00
2018-06-20T05:13:07.104Z,3028.00
2018-06-20T05:14:07.090Z,3064.00
2018-06-20T05:15:07.077Z,3172.00
2018-06-20T05:16:07.073Z,3184.00
2018-06-20T05:17:07.060Z,3172.00
2018-06-20T05:18:07.049Z,3160.00
2018-06-20T05:19:07.032Z,3264.00
2018-06-20T05:20:07.022Z,3356.00
2018-06-20T05:21:07.011Z,3472.00
2018-06-20T05:22:06.999Z,3544.00
2018-06-20T05:23:06.990Z,3652.00
2018-06-20T05:24:06.976Z,3764.00
2018-06-20T05:25:06.966Z,3828.00
2018-06-20T05:26:06.961Z,3788.00
2018-06-20T05:27:06.946Z,3744.00
2018-06-20T05:28:06.933Z,3792.00
2018-06-20T05:29:06.930Z,3848.00
2018-06-20T05:30:06.918Z,3992.00
2018-06-20T05:31:06.905Z,4016.00
2018-06-20T05:32:06.891Z,4124.00
2018-06-20T05:33:06.892Z,4272.00
2018-06-20T05:34:06.874Z,4292.00
2018-06-20T05:35:06.859Z,4340.00
2018-06-20T05:36:06.853Z,4464.00
2018-06-20T05:37:06.843Z,4600.00
2018-06-20T05:38:06.824Z,4684.00
2018-06-20T05:39:06.917Z,4764.00
2018-06-20T05:40:06.804Z,4812.00
2018-06-20T05:41:06.833Z,4732.00
2018-06-20T05:42:06.793Z,4748.00
2018-06-20T05:43:06.828Z,4796.00
2018-06-20T05:44:06.770Z,4776.00
2018-06-20T05:45:06.752Z,4824.00
2018-06-20T05:46:06.742Z,4932.00
2018-06-20T05:47:06.782Z,5100.00
2018-06-20T05:48:06.718Z,5168.00
2018-06-20T05:49:06.712Z,5108.00
2018-06-20T05:50:06.698Z,5188.00
2018-06-20T05:51:06.686Z,5440.00
2018-06-20T05:52:06.680Z,5840.00
2018-06-20T05:53:06.683Z,5600.00
2018-06-20T05:54:06.657Z,4972.00
2018-06-20T05:55:06.644Z,4436.00
2018-06-20T05:56:06.634Z,4572.00
2018-06-20T05:57:06.623Z,4840.00
2018-06-20T05:58:06.615Z,5148.00
2018-06-20T05:59:06.600Z,5504.00
2018-06-20T06:00:06.603Z,5572.00
2018-06-20T06:01:06.584Z,5564.00
2018-06-20T06:02:06.574Z,5616.00
2018-06-20T06:03:06.562Z,6020.00
2018-06-20T06:04:06.553Z,6348.00
2018-06-20T06:05:06.592Z,6572.00
2018-06-20T06:06:06.542Z,6904.00
2018-06-20T06:07:06.523Z,7060.00
2018-06-20T06:08:06.517Z,7272.00
2018-06-20T06:09:06.498Z,7436.00
2018-06-20T06:10:06.487Z,7624.00
2018-06-20T06:11:06.483Z,7352.00
2018-06-20T06:12:06.507Z,6452.00
2018-06-20T06:13:06.472Z,5552.00
2018-06-20T06:14:06.455Z,4500.00
2018-06-20T06:15:06.439Z,3420.00
2018-06-20T06:16:06.432Z,2852.00
2018-06-20T06:17:06.512Z,2212.00
2018-06-20T06:18:06.409Z,1724.00
2018-06-20T06:19:06.400Z,1544.00
2018-06-20T06:20:06.387Z,1512.00
2018-06-20T06:21:06.382Z,1564.00
2018-06-20T06:22:06.374Z,1724.00
2018-06-20T06:23:06.361Z,1908.00
2018-06-20T06:24:06.350Z,2140.00
2018-06-20T06:25:06.342Z,2284.00
2018-06-20T06:26:06.339Z,2464.00
2018-06-20T06:27:06.321Z,2680.00
2018-06-20T06:28:06.332Z,2856.00
2018-06-20T06:29:06.299Z,2968.00
2018-06-20T06:30:06.341Z,2980.00
2018-06-20T06:31:06.277Z,2828.00
2018-06-20T06:32:06.262Z,2680.00
2018-06-20T06:33:06.252Z,2584.00
2018-06-20T06:34:06.249Z,2552.00
2018-06-20T06:35:06.235Z,2560.00
2018-06-20T06:36:06.219Z,2536.00
2018-06-20T06:37:06.214Z,2516.00
2018-06-20T06:38:06.202Z,2420.00
2018-06-20T06:39:06.187Z,2356.00
2018-06-20T06:40:06.193Z,2328.00
2018-06-20T06:41:06.171Z,2388.00
2018-06-20T06:42:06.158Z,2444.00
2018-06-20T06:43:06.151Z,2516.00
2018-06-20T06:44:06.147Z,2616.00
2018-06-20T06:45:06.130Z,2796.00
2018-06-20T06:46:06.116Z,2840.00
2018-06-20T06:47:06.113Z,2836.00
2018-06-20T06:48:06.100Z,2964.00
2018-06-20T06:49:06.082Z,3108.00
2018-06-20T06:50:06.248Z,3076.00
2018-06-20T06:51:06.062Z,3308.00
2018-06-20T06:52:06.054Z,3328.00
2018-06-20T06:53:06.043Z,3096.00
2018-06-20T06:54:06.029Z,2848.00
2018-06-20T06:55:06.023Z,2876.00
2018-06-20T06:56:06.046Z,3056.00
2018-06-20T06:57:06.006Z,3020.00
2018-06-20T06:58:05.986Z,2924.00
2018-06-20T06:59:05.978Z,2492.00
2018-06-20T07:00:05.975Z,2520.00
2018-06-20T07:01:05.954Z,2916.00
2018-06-20T07:02:05.945Z,2952.00
2018-06-20T07:03:05.940Z,2676.00
2018-06-20T07:04:05.924Z,2804.00
2018-06-20T07:05:05.911Z,3012.00
2018-06-20T07:06:05.902Z,2928.00
2018-06-20T07:07:05.897Z,2972.00
2018-06-20T07:08:05.882Z,3340.00
2018-06-20T07:09:05.877Z,3956.00
2018-06-20T07:10:05.861Z,4580.00
2018-06-20T07:11:05.854Z,4164.00
2018-06-20T07:12:05.841Z,4312.00
2018-06-20T07:13:05.830Z,4888.00
2018-06-20T07:14:05.823Z,5800.00
2018-06-20T07:15:05.807Z,6456.00
2018-06-20T07:16:05.802Z,6504.00
2018-06-20T07:17:05.799Z,6520.00
2018-06-20T07:18:05.782Z,6568.00
2018-06-20T07:19:05.769Z,6444.00
2018-06-20T07:20:05.758Z,6268.00
2018-06-20T07:21:05.758Z,6508.00
2018-06-20T07:22:05.743Z,6504.00
2018-06-20T07:23:05.726Z,6860.00
2018-06-20T07:24:05.728Z,6988.00
2018-06-20T07:25:05.710Z,7008.00
2018-06-20T07:26:05.698Z,6800.00
2018-06-20T07:27:05.791Z,6228.00
2018-06-20T07:28:05.686Z,6044.00
2018-06-20T07:29:05.669Z,5644.00
2018-06-20T07:30:05.753Z,5692.00
2018-06-20T07:31:05.759Z,6176.00
2018-06-20T07:32:05.647Z,6228.00
2018-06-20T07:33:05.630Z,5352.00
2018-06-20T07:34:05.667Z,5276.00
2018-06-20T07:35:05.610Z,5468.00
2018-06-20T07:36:05.629Z,5516.00
2018-06-20T07:37:05.633Z,6816.00
2018-06-20T07:38:05.588Z,7228.00
2018-06-20T07:39:05.623Z,7204.00
2018-06-20T07:40:05.564Z,7324.00
2018-06-20T07:41:05.556Z,7320.00
2018-06-20T07:42:05.543Z,7228.00
2018-06-20T07:43:05.534Z,7504.00
2018-06-20T07:44:05.523Z,6608.00
2018-06-20T07:45:05.541Z,6644.00
2018-06-20T07:46:05.504Z,8552.00
2018-06-20T07:47:05.493Z,8092.00
2018-06-20T07:48:05.484Z,9880.00
2018-06-20T07:49:05.493Z,10536.00
2018-06-20T07:50:05.474Z,10504.00
2018-06-20T07:51:05.457Z,9140.00
2018-06-20T07:52:05.454Z,8592.00
2018-06-20T07:53:05.442Z,8592.00
2018-06-20T07:54:05.433Z,9784.00
2018-06-20T07:55:05.425Z,9448.00
2018-06-20T07:56:05.420Z,8404.00
2018-06-20T07:57:05.404Z,6688.00
2018-06-20T07:58:05.397Z,10512.00
2018-06-20T07:59:05.393Z,12840.00
2018-06-20T08:00:05.386Z,8832.00
2018-06-20T08:01:05.533Z,11060.00
2018-06-20T08:02:05.373Z,12720.00
2018-06-20T08:03:05.352Z,10848.00
2018-06-20T08:04:05.342Z,9856.00
2018-06-20T08:05:05.337Z,8688.00
2018-06-20T08:06:05.325Z,8176.00
2018-06-20T08:07:05.317Z,7372.00
2018-06-20T08:08:05.303Z,6848.00
2018-06-20T08:09:05.292Z,5980.00
2018-06-20T08:10:05.433Z,4328.00
2018-06-20T08:11:05.283Z,3284.00
2018-06-20T08:12:05.333Z,2740.00
2018-06-20T08:13:05.272Z,2732.00
2018-06-20T08:14:05.252Z,2864.00
2018-06-20T08:15:05.240Z,3028.00
2018-06-20T08:16:05.384Z,2916.00
2018-06-20T08:17:05.225Z,3212.00
2018-06-20T08:18:05.221Z,3436.00
2018-06-20T08:19:05.205Z,3396.00
2018-06-20T08:20:05.197Z,3460.00
2018-06-20T08:21:05.191Z,2960.00
2018-06-20T08:22:05.182Z,2856.00
2018-06-20T08:23:05.165Z,2752.00
2018-06-20T08:24:05.162Z,2744.00
2018-06-20T08:25:05.148Z,2948.00
2018-06-20T08:26:05.137Z,3512.00
2018-06-20T08:27:05.126Z,4376.00
2018-06-20T08:28:05.122Z,5072.00
2018-06-20T08:29:05.117Z,5896.00
2018-06-20T08:30:05.104Z,7448.00
2018-06-20T08:31:05.095Z,10492.00
2018-06-20T08:32:05.082Z,13884.00
2018-06-20T08:33:05.073Z,11888.00
2018-06-20T08:34:05.064Z,10988.00
2018-06-20T08:35:05.051Z,10120.00
2018-06-20T08:36:05.040Z,12220.00
2018-06-20T08:37:05.032Z,11308.00
2018-06-20T08:38:05.032Z,10156.00
2018-06-20T08:39:05.015Z,11704.00
2018-06-20T08:40:05.019Z,11568.00
2018-06-20T08:41:05.004Z,10576.00
2018-06-20T08:42:04.993Z,10460.00
2018-06-20T08:43:04.986Z,10248.00
2018-06-20T08:44:04.969Z,8280.00
2018-06-20T08:45:04.962Z,8112.00
2018-06-20T08:46:04.953Z,8052.00
2018-06-20T08:47:04.942Z,9184.00
2018-06-20T08:48:04.944Z,11444.00
2018-06-20T08:49:04.932Z,12444.00
2018-06-20T08:50:04.921Z,13196.00
2018-06-20T08:51:04.912Z,14912.00
2018-06-20T08:52:04.904Z,14560.00
2018-06-20T08:53:04.929Z,13160.00
2018-06-20T08:54:04.884Z,13544.00
2018-06-20T08:55:04.880Z,12496.00
2018-06-20T08:56:04.871Z,12892.00
2018-06-20T08:57:04.861Z,13648.00
2018-06-20T08:58:04.851Z,14136.00
2018-06-20T08:59:04.844Z,14964.00
2018-06-20T09:00:04.844Z,17120.00
2018-06-20T09:01:04.831Z,14560.00
2018-06-20T09:02:04.864Z,11340.00
2018-06-20T09:03:04.813Z,9184.00
2018-06-20T09:04:04.811Z,7184.00
2018-06-20T09:05:04.796Z,5884.00
2018-06-20T09:06:04.803Z,5568.00
2018-06-20T09:07:04.780Z,5512.00
2018-06-20T09:08:04.772Z,5096.00
2018-06-20T09:09:04.778Z,4772.00
2018-06-20T09:10:04.761Z,4260.00
2018-06-20T09:11:04.754Z,3764.00
2018-06-20T09:12:04.752Z,3308.00
2018-06-20T09:13:04.737Z,3068.00
2018-06-20T09:14:04.729Z,3188.00
2018-06-20T09:15:04.718Z,3132.00
2018-06-20T09:16:04.716Z,3188.00
2018-06-20T09:17:04.702Z,3388.00
2018-06-20T09:18:04.702Z,3676.00
2018-06-20T09:19:04.689Z,3776.00
2018-06-20T09:20:04.682Z,3940.00
2018-06-20T09:21:04.667Z,4604.00
2018-06-20T09:22:04.730Z,5036.00
2018-06-20T09:23:04.652Z,5316.00
2018-06-20T09:24:04.651Z,5420.00
2018-06-20T09:25:04.635Z,5592.00
2018-06-20T09:26:04.623Z,5780.00
2018-06-20T09:27:04.613Z,7548.00
2018-06-20T09:28:04.614Z,7928.00
2018-06-20T09:29:04.601Z,12772.00
2018-06-20T09:30:04.664Z,16800.00
2018-06-20T09:31:04.589Z,18336.00
2018-06-20T09:32:04.573Z,17856.00
2018-06-20T09:33:04.561Z,22080.00
2018-06-20T09:34:04.560Z,16192.00
2018-06-20T09:35:04.551Z,13972.00
2018-06-20T09:36:04.540Z,27072.00
2018-06-20T09:37:04.535Z,18624.00
2018-06-20T09:38:04.530Z,10868.00
2018-06-20T09:39:04.526Z,21792.00
2018-06-20T09:40:04.509Z,13196.00
2018-06-20T09:41:04.510Z,12624.00
2018-06-20T09:42:04.512Z,11612.00
2018-06-20T09:43:04.489Z,10584.00
2018-06-20T09:44:04.502Z,9412.00
2018-06-20T09:45:04.484Z,7484.00
2018-06-20T09:46:04.484Z,6440.00
2018-06-20T09:47:04.474Z,6680.00
2018-06-20T09:48:04.463Z,6748.00
2018-06-20T09:49:04.449Z,5632.00
2018-06-20T09:50:04.592Z,5364.00
2018-06-20T09:51:04.430Z,23712.00
2018-06-20T09:52:04.473Z,12012.00
2018-06-20T09:53:04.422Z,7508.00
2018-06-20T09:54:04.445Z,7840.00
2018-06-20T09:55:04.402Z,13412.00
2018-06-20T09:56:04.404Z,33152.00
2018-06-20T09:57:04.387Z,14088.00
2018-06-20T09:58:04.382Z,17184.00
2018-06-20T09:59:04.371Z,30368.00
2018-06-20T10:00:04.375Z,10776.00
2018-06-20T10:01:04.360Z,9220.00
2018-06-20T10:02:04.359Z,9128.00
2018-06-20T10:03:04.342Z,8592.00
2018-06-20T10:04:04.347Z,8108.00
2018-06-20T10:05:04.333Z,7812.00
2018-06-20T10:06:04.324Z,7752.00
2018-06-20T10:07:04.315Z,7888.00
2018-06-20T10:08:04.313Z,10412.00
2018-06-20T10:09:04.304Z,6520.00
2018-06-20T10:10:04.306Z,5796.00
2018-06-20T10:11:04.297Z,5344.00
2018-06-20T10:12:04.285Z,5112.00
2018-06-20T10:13:04.272Z,5216.00
2018-06-20T10:14:04.268Z,5884.00
2018-06-20T10:15:04.255Z,6660.00
2018-06-20T10:16:04.256Z,7348.00
2018-06-20T10:17:04.242Z,7280.00
2018-06-20T10:18:04.236Z,11724.00
2018-06-20T10:19:04.227Z,9292.00
2018-06-20T10:20:04.224Z,9648.00
2018-06-20T10:21:04.260Z,6556.00
2018-06-20T10:22:04.206Z,6676.00
2018-06-20T10:23:04.197Z,7352.00
2018-06-20T10:24:04.192Z,6728.00
2018-06-20T10:25:04.194Z,7608.00
2018-06-20T10:26:04.189Z,10880.00
2018-06-20T10:27:04.169Z,11060.00
2018-06-20T10:28:04.165Z,10752.00
2018-06-20T10:29:04.163Z,10228.00
2018-06-20T10:30:04.144Z,13636.00
2018-06-20T10:31:04.193Z,13396.00
2018-06-20T10:32:04.138Z,12576.00
2018-06-20T10:33:04.138Z,9168.00
2018-06-20T10:34:04.126Z,8384.00
2018-06-20T10:35:04.112Z,9524.00
2018-06-20T10:36:04.111Z,12252.00
2018-06-20T10:37:04.099Z,12804.00
2018-06-20T10:38:04.092Z,10476.00
2018-06-20T10:39:04.084Z,8784.00
2018-06-20T10:40:04.188Z,8672.00
2018-06-20T10:41:04.070Z,8272.00
2018-06-20T10:42:04.072Z,11252.00
2018-06-20T10:43:04.058Z,11480.00
2018-06-20T10:44:04.060Z,11520.00
2018-06-20T10:45:04.044Z,11460.00
2018-06-20T10:46:04.128Z,11500.00
2018-06-20T10:47:04.040Z,11492.00
2018-06-20T10:48:04.032Z,11492.00
2018-06-20T10:49:04.031Z,10912.00
2018-06-20T10:50:04.019Z,11104.00
2018-06-20T10:51:04.015Z,10476.00
2018-06-20T10:52:04.006Z,11072.00
2018-06-20T10:53:04.001Z,7748.00
2018-06-20T10:54:03.989Z,8176.00
2018-06-20T10:55:03.992Z,9340.00
2018-06-20T10:56:03.981Z,9520.00
2018-06-20T10:57:03.970Z,11784.00
2018-06-20T10:58:03.970Z,10972.00
2018-06-20T10:59:03.976Z,8724.00
2018-06-20T11:00:03.952Z,8136.00
2018-06-20T11:01:03.950Z,7984.00
2018-06-20T11:02:03.942Z,11156.00
2018-06-20T11:03:03.951Z,7976.00
2018-06-20T11:04:03.930Z,9588.00
2018-06-20T11:05:03.929Z,10908.00
2018-06-20T11:06:03.926Z,10940.00
2018-06-20T11:07:03.976Z,9496.00
2018-06-20T11:08:03.912Z,11188.00
2018-06-20T11:09:03.901Z,11016.00
2018-06-20T11:10:03.896Z,10700.00
2018-06-20T11:11:03.892Z,6824.00
2018-06-20T11:12:03.881Z,11104.00
2018-06-20T11:13:03.880Z,11080.00
2018-06-20T11:14:03.873Z,11096.00
2018-06-20T11:15:03.868Z,10760.00
2018-06-20T11:16:03.862Z,10848.00
2018-06-20T11:17:03.862Z,9780.00
2018-06-20T11:18:03.853Z,9656.00
2018-06-20T11:19:03.901Z,8196.00
2018-06-20T11:20:03.836Z,10068.00
2018-06-20T11:21:03.833Z,10800.00
2018-06-20T11:22:03.824Z,6976.00
2018-06-20T11:23:03.822Z,8204.00
2018-06-20T11:24:03.811Z,7260.00
2018-06-20T11:25:03.824Z,10708.00
2018-06-20T11:26:03.804Z,6336.00
2018-06-20T11:27:03.802Z,5940.00
2018-06-20T11:28:03.789Z,5796.00
2018-06-20T11:29:03.783Z,5784.00
2018-06-20T11:30:03.784Z,5604.00
2018-06-20T11:31:03.816Z,6240.00
2018-06-20T11:32:03.766Z,6236.00
2018-06-20T11:33:03.762Z,7148.00
2018-06-20T11:34:03.756Z,6084.00
2018-06-20T11:35:03.747Z,5580.00
2018-06-20T11:36:03.754Z,9748.00
2018-06-20T11:37:03.737Z,8688.00
2018-06-20T11:38:03.739Z,8036.00
2018-06-20T11:39:03.725Z,9428.00
2018-06-20T11:40:03.727Z,7624.00
2018-06-20T11:41:03.709Z,6672.00
2018-06-20T11:42:03.703Z,10076.00
2018-06-20T11:43:03.701Z,5560.00
2018-06-20T11:44:03.690Z,6512.00
2018-06-20T11:45:03.700Z,9940.00
2018-06-20T11:46:03.680Z,10228.00
2018-06-20T11:47:03.707Z,9996.00
2018-06-20T11:48:03.681Z,7564.00
2018-06-20T11:49:03.759Z,9264.00
2018-06-20T11:50:03.663Z,5460.00
2018-06-20T11:51:03.701Z,5516.00
2018-06-20T11:52:03.642Z,5516.00
2018-06-20T11:53:03.643Z,5512.00
2018-06-20T11:54:03.633Z,5540.00
2018-06-20T11:55:03.635Z,6968.00
2018-06-20T11:56:03.624Z,7336.00
2018-06-20T11:57:03.611Z,9604.00
2018-06-20T11:58:03.644Z,8068.00
2018-06-20T11:59:03.612Z,5004.00
2018-06-20T12:00:03.595Z,4936.00
2018-06-20T12:01:03.601Z,5232.00
2018-06-20T12:02:03.583Z,7688.00
2018-06-20T12:03:03.572Z,5776.00
2018-06-20T12:04:03.572Z,5304.00
2018-06-20T12:05:03.562Z,4644.00
2018-06-20T12:06:03.565Z,4696.00
2018-06-20T12:07:03.550Z,4868.00
2018-06-20T12:08:03.541Z,6288.00
2018-06-20T12:09:03.536Z,5076.00
2018-06-20T12:10:03.534Z,4928.00
2018-06-20T12:11:03.525Z,4780.00
2018-06-20T12:12:03.519Z,4556.00
2018-06-20T12:13:03.511Z,4912.00
2018-06-20T12:14:03.520Z,5256.00
2018-06-20T12:15:03.498Z,5208.00
2018-06-20T12:16:03.506Z,7652.00
2018-06-20T12:17:03.495Z,8780.00
2018-06-20T12:18:03.482Z,9060.00
2018-06-20T12:19:03.467Z,7252.00
2018-06-20T12:20:03.466Z,4616.00
2018-06-20T12:21:03.461Z,6924.00
2018-06-20T12:22:03.472Z,8288.00
2018-06-20T12:23:03.444Z,4860.00